Time;durP1;ratioP1;P1;durP2;ratioP2;P2;SDS_P1;SDS_P2;PMS_P1;PMS_P2;Temp;Humidity;BMP_temperature;BMP_pressure;BME280_temperature;BME280_humidity;BME280_pressure;Samples;Min_cycle;Max_cycle;Signal;HPM_P1;HPM_P2
2022/10/18 00:00:29;;;;;;;14.05;12.05;;;;;;;;;;6114639;23;20016;-74
2022/10/18 00:02:55;;;;;;;15.65;13.65;;;;;;;;;;6116453;23;20006;-73
2022/10/18 00:05:21;;;;;;;14.18;12.63;;;;;;;;;;6092487;23;20305;-73
2022/10/18 00:07:47;;;;;;;17.00;12.00;;;;;;;;;;6118977;23;20491;-73
2022/10/18 00:10:13;;;;;;;13.77;12.35;;;;;;;;;;6093323;23;20014;-73
2022/10/18 00:12:43;;;;;;;15.88;12.55;;;;;;;;;;6118577;23;20065;-76
2022/10/18 00:15:10;;;;;;;14.63;13.10;;;;;;;;;;6117293;23;20009;-73
2022/10/18 00:17:37;;;;;;;13.45;11.98;;;;;;;;;;6119068;23;20583;-73
2022/10/18 00:20:03;;;;;;;13.48;12.07;;;;;;;;;;6118948;23;20014;-73
2022/10/18 00:22:29;;;;;;;13.50;12.10;;;;;;;;;;6119144;23;20052;-74
2022/10/18 00:24:56;;;;;;;12.82;11.40;;;;;;;;;;6117033;23;20348;-73
2022/10/18 00:27:22;;;;;;;14.57;10.95;;;;;;;;;;6118634;23;20530;-74
2022/10/18 00:29:52;;;;;;;12.35;11.07;;;;;;;;;;6117928;23;20013;-74
2022/10/18 00:32:18;;;;;;;13.90;11.27;;;;;;;;;;6119124;23;20002;-74
2022/10/18 00:34:44;;;;;;;14.90;12.02;;;;;;;;;;6118759;23;20076;-74
2022/10/18 00:37:10;;;;;;;13.73;11.68;;;;;;;;;;6118581;23;20002;-73
2022/10/18 00:39:36;;;;;;;12.73;11.40;;;;;;;;;;6117098;23;20536;-74
2022/10/18 00:42:02;;;;;;;14.80;11.30;;;;;;;;;;6118673;23;20002;-75
2022/10/18 00:44:28;;;;;;;12.57;11.30;;;;;;;;;;6118809;23;20037;-73
2022/10/18 00:47:01;;;;;;;13.38;11.15;;;;;;;;;;6118867;23;20006;-74
2022/10/18 00:49:32;;;;;;;16.65;13.55;;;;;;;;;;6117047;23;20014;-74
2022/10/18 00:52:06;;;;;;;13.80;12.27;;;;;;;;;;6119178;23;20187;-76
2022/10/18 00:54:33;;;;;;;17.67;13.13;;;;;;;;;;6119166;23;20594;-73
2022/10/18 00:56:59;;;;;;;15.23;12.43;;;;;;;;;;6118499;23;20014;-74
2022/10/18 00:59:25;;;;;;;13.68;12.18;;;;;;;;;;6118429;23;20056;-73
2022/10/18 01:01:52;;;;;;;14.50;12.23;;;;;;;;;;6116031;23;20008;-74
2022/10/18 01:04:18;;;;;;;16.10;13.05;;;;;;;;;;6118351;23;20014;-73
2022/10/18 01:07:03;;;;;;;14.88;13.27;;;;;;;;;;6118253;23;20002;-74
2022/10/18 01:09:35;;;;;;;17.40;13.70;;;;;;;;;;6116794;23;20796;-75
2022/10/18 01:12:20;;;;;;;15.85;13.13;;;;;;;;;;6118757;23;20005;-73
2022/10/18 01:14:52;;;;;;;14.85;13.00;;;;;;;;;;6118234;23;20026;-74
2022/10/18 01:17:18;;;;;;;;;;;;;;;;;;6118818;23;20122;-73
2022/10/18 01:19:44;;;;;;;15.75;13.00;;;;;;;;;;6117091;23;19908;-73
2022/10/18 01:22:13;;;;;;;18.48;13.30;;;;;;;;;;6118549;23;20017;-73
2022/10/18 01:24:49;;;;;;;14.73;12.77;;;;;;;;;;6118850;23;20019;-73
2022/10/18 01:27:34;;;;;;;16.10;13.52;;;;;;;;;;6117898;23;20067;-73
2022/10/18 01:30:03;;;;;;;16.23;13.98;;;;;;;;;;6092179;23;20018;-73
2022/10/18 01:32:34;;;;;;;17.02;14.23;;;;;;;;;;6116980;23;20025;-73
2022/10/18 01:35:07;;;;;;;18.73;13.82;;;;;;;;;;6092249;23;19998;-75
2022/10/18 01:37:34;;;;;;;17.33;14.90;;;;;;;;;;6092197;23;20006;-76
2022/10/18 01:40:02;;;;;;;20.23;15.25;;;;;;;;;;6118277;23;20072;-73
2022/10/18 01:42:29;;;;;;;19.45;16.00;;;;;;;;;;6118775;23;20022;-75
2022/10/18 01:44:56;;;;;;;18.65;15.70;;;;;;;;;;6116421;23;20001;-73
2022/10/18 01:47:23;;;;;;;20.52;15.88;;;;;;;;;;6117993;23;20013;-76
2022/10/18 01:49:49;;;;;;;16.67;14.98;;;;;;;;;;6118295;23;20014;-76
2022/10/18 01:52:15;;;;;;;20.55;15.80;;;;;;;;;;6118590;23;20384;-73
2022/10/18 01:54:44;;;;;;;18.60;15.57;;;;;;;;;;6111503;23;20010;-73
2022/10/18 01:57:25;;;;;;;18.05;14.77;;;;;;;;;;6110325;23;20762;-73
2022/10/18 01:59:54;;;;;;;22.43;14.97;;;;;;;;;;6113043;23;20002;-73
2022/10/18 02:02:39;;;;;;;18.48;15.70;;;;;;;;;;6112926;23;20583;-73
2022/10/18 02:05:15;;;;;;;18.33;14.48;;;;;;;;;;6087315;23;20006;-73
2022/10/18 02:07:44;;;;;;;15.70;13.90;;;;;;;;;;6086440;23;20021;-73
2022/10/18 02:10:10;;;;;;;19.38;15.43;;;;;;;;;;6112187;23;20870;-73
2022/10/18 02:12:38;;;;;;;18.95;16.70;;;;;;;;;;6111458;23;20443;-74
2022/10/18 02:15:05;;;;;;;19.95;15.30;;;;;;;;;;6112445;23;20014;-73
2022/10/18 02:17:32;;;;;;;20.70;15.75;;;;;;;;;;6113807;23;20006;-73
2022/10/18 02:19:59;;;;;;;18.77;15.27;;;;;;;;;;6089118;23;20013;-73
2022/10/18 02:22:27;;;;;;;16.98;15.18;;;;;;;;;;6114869;23;20068;-73
2022/10/18 02:24:55;;;;;;;18.85;15.57;;;;;;;;;;6112367;23;20006;-73
2022/10/18 02:27:22;;;;;;;17.67;14.88;;;;;;;;;;6114217;23;20006;-76
2022/10/18 02:29:48;;;;;;;17.27;15.02;;;;;;;;;;6112022;23;20014;-74
2022/10/18 02:32:19;;;;;;;20.42;15.60;;;;;;;;;;6113778;23;20014;-73
2022/10/18 02:35:00;;;;;;;18.48;15.00;;;;;;;;;;6112196;23;20034;-76
2022/10/18 02:37:30;;;;;;;17.02;15.00;;;;;;;;;;6114337;23;20014;-74
2022/10/18 02:39:56;;;;;;;19.83;15.10;;;;;;;;;;6114027;23;20010;-74
2022/10/18 02:42:23;;;;;;;21.30;15.20;;;;;;;;;;6114242;23;20448;-74
2022/10/18 02:44:49;;;;;;;19.02;15.65;;;;;;;;;;6114136;23;20006;-74
2022/10/18 02:47:15;;;;;;;17.42;15.63;;;;;;;;;;6111936;23;20013;-74
2022/10/18 02:49:41;;;;;;;19.63;14.43;;;;;;;;;;6114426;23;20028;-75
2022/10/18 02:52:07;;;;;;;16.13;14.50;;;;;;;;;;6114039;23;20012;-74
2022/10/18 02:54:33;;;;;;;19.95;15.77;;;;;;;;;;6113298;23;20002;-73
2022/10/18 02:57:00;;;;;;;17.25;15.45;;;;;;;;;;6113124;23;20021;-74
2022/10/18 02:59:26;;;;;;;18.05;15.98;;;;;;;;;;6114299;23;20006;-73
2022/10/18 03:01:52;;;;;;;16.98;15.00;;;;;;;;;;6112214;23;20505;-73
2022/10/18 03:04:18;;;;;;;16.45;14.73;;;;;;;;;;6113980;23;20495;-74
2022/10/18 03:06:44;;;;;;;21.83;15.60;;;;;;;;;;6113410;23;20068;-73
2022/10/18 03:09:10;;;;;;;17.90;15.05;;;;;;;;;;6114998;23;20009;-73
2022/10/18 03:11:37;;;;;;;16.20;14.15;;;;;;;;;;6114600;23;20092;-74
2022/10/18 03:14:03;;;;;;;17.05;14.55;;;;;;;;;;6116686;23;20404;-73
2022/10/18 03:16:29;;;;;;;18.52;15.35;;;;;;;;;;6115551;23;20009;-73
2022/10/18 03:18:55;;;;;;;18.70;15.38;;;;;;;;;;6113034;23;20458;-73
2022/10/18 03:21:21;;;;;;;18.52;15.90;;;;;;;;;;6113671;23;20006;-74
2022/10/18 03:23:48;;;;;;;19.05;15.73;;;;;;;;;;6111276;23;20002;-73
2022/10/18 03:26:14;;;;;;;21.02;15.35;;;;;;;;;;6112676;23;20219;-74
2022/10/18 03:28:40;;;;;;;17.77;15.30;;;;;;;;;;6113044;23;20057;-73
2022/10/18 03:31:06;;;;;;;17.85;15.95;;;;;;;;;;6113560;23;20013;-73
2022/10/18 03:33:33;;;;;;;17.20;14.63;;;;;;;;;;6113094;23;20021;-74
2022/10/18 03:35:59;;;;;;;17.85;15.43;;;;;;;;;;6111644;23;20010;-74
2022/10/18 03:38:25;;;;;;;20.67;15.63;;;;;;;;;;6110269;23;20009;-74
2022/10/18 03:40:51;;;;;;;18.20;14.93;;;;;;;;;;6110765;23;20474;-73
2022/10/18 03:43:17;;;;;;;16.70;14.43;;;;;;;;;;6111362;23;20013;-74
2022/10/18 03:45:44;;;;;;;18.45;15.68;;;;;;;;;;6108462;23;20008;-73
2022/10/18 03:48:10;;;;;;;20.00;15.45;;;;;;;;;;6110334;23;20097;-73
2022/10/18 03:50:36;;;;;;;17.45;15.45;;;;;;;;;;6109911;23;20025;-73
2022/10/18 03:53:02;;;;;;;18.83;16.00;;;;;;;;;;6110674;23;20006;-73
2022/10/18 03:55:28;;;;;;;16.50;14.63;;;;;;;;;;6108363;23;20010;-73
2022/10/18 03:57:54;;;;;;;19.25;15.75;;;;;;;;;;6107982;23;20072;-74
2022/10/18 04:00:21;;;;;;;21.33;16.30;;;;;;;;;;6110227;23;20339;-73
2022/10/18 04:02:47;;;;;;;17.48;14.57;;;;;;;;;;6110827;23;20080;-74
2022/10/18 04:05:13;;;;;;;19.20;15.52;;;;;;;;;;6109969;23;20475;-73
2022/10/18 04:07:39;;;;;;;17.05;15.18;;;;;;;;;;6108755;23;20061;-74
2022/10/18 04:10:06;;;;;;;20.48;16.00;;;;;;;;;;6110177;23;20112;-73
2022/10/18 04:12:32;;;;;;;19.52;15.23;;;;;;;;;;6109914;23;20712;-73
2022/10/18 04:14:58;;;;;;;21.70;17.30;;;;;;;;;;6109862;23;20005;-73
2022/10/18 04:17:24;;;;;;;21.02;16.23;;;;;;;;;;6110116;23;20010;-73
2022/10/18 04:19:51;;;;;;;19.00;15.45;;;;;;;;;;6109730;23;20012;-73
2022/10/18 04:22:17;;;;;;;18.27;15.15;;;;;;;;;;6107916;23;20013;-75
2022/10/18 04:24:43;;;;;;;18.30;15.48;;;;;;;;;;6110120;23;20033;-73
2022/10/18 04:27:09;;;;;;;20.10;16.13;;;;;;;;;;6083983;23;20431;-74
2022/10/18 04:29:36;;;;;;;17.05;15.18;;;;;;;;;;6084375;23;20045;-72
2022/10/18 04:32:02;;;;;;;21.88;16.65;;;;;;;;;;6108725;23;19997;-72
2022/10/18 04:34:28;;;;;;;18.65;16.15;;;;;;;;;;6110110;23;20068;-72
2022/10/18 04:36:55;;;;;;;19.65;15.73;;;;;;;;;;6109919;23;20061;-72
2022/10/18 04:39:21;;;;;;;19.95;15.75;;;;;;;;;;6109845;23;20034;-73
2022/10/18 04:41:47;;;;;;;18.60;15.38;;;;;;;;;;6108691;23;20411;-73
2022/10/18 04:44:13;;;;;;;20.77;15.68;;;;;;;;;;6110412;23;20054;-72
2022/10/18 04:46:39;;;;;;;17.67;15.48;;;;;;;;;;6084300;23;20006;-72
2022/10/18 04:49:06;;;;;;;20.17;15.00;;;;;;;;;;6109717;23;20006;-72
2022/10/18 04:51:32;;;;;;;18.02;15.48;;;;;;;;;;6109920;23;20086;-74
2022/10/18 04:53:58;;;;;;;19.00;15.38;;;;;;;;;;6110727;23;20412;-72
2022/10/18 04:56:24;;;;;;;17.35;14.93;;;;;;;;;;6107959;23;20795;-72
2022/10/18 04:58:50;;;;;;;17.50;15.00;;;;;;;;;;6107839;23;20687;-73
2022/10/18 05:01:17;;;;;;;18.65;16.48;;;;;;;;;;6109252;23;20012;-72
2022/10/18 05:03:43;;;;;;;19.50;15.95;;;;;;;;;;6109828;23;20069;-72
2022/10/18 05:06:10;;;;;;;17.33;15.30;;;;;;;;;;6109746;23;20458;-72
2022/10/18 05:08:37;;;;;;;18.33;15.35;;;;;;;;;;6108025;23;20002;-72
2022/10/18 05:11:03;;;;;;;17.67;15.77;;;;;;;;;;6109597;23;20109;-73
2022/10/18 05:13:30;;;;;;;16.90;15.07;;;;;;;;;;6109325;23;20002;-72
2022/10/18 05:15:58;;;;;;;18.73;15.60;;;;;;;;;;6110744;23;20013;-71
2022/10/18 05:18:24;;;;;;;18.63;15.77;;;;;;;;;;6109397;23;20002;-71
2022/10/18 05:20:51;;;;;;;22.25;16.35;;;;;;;;;;6108256;23;20002;-71
2022/10/18 05:23:17;;;;;;;20.13;16.38;;;;;;;;;;6109961;23;20002;-71
2022/10/18 05:25:43;;;;;;;19.30;16.02;;;;;;;;;;6108757;23;20010;-72
2022/10/18 05:28:10;;;;;;;19.88;16.08;;;;;;;;;;6109191;23;20014;-71
2022/10/18 05:30:39;;;;;;;20.75;16.67;;;;;;;;;;6106924;23;20041;-71
2022/10/18 05:33:06;;;;;;;22.63;17.25;;;;;;;;;;6109290;23;20022;-72
2022/10/18 05:35:32;;;;;;;21.17;16.55;;;;;;;;;;6109284;23;20061;-71
2022/10/18 05:37:58;;;;;;;18.58;16.55;;;;;;;;;;6083134;23;20010;-71
2022/10/18 05:40:24;;;;;;;19.20;16.92;;;;;;;;;;6108486;23;20041;-71
2022/10/18 05:42:53;;;;;;;19.45;16.00;;;;;;;;;;6109371;23;20058;-71
2022/10/18 05:45:19;;;;;;;25.25;17.65;;;;;;;;;;6109511;23;20002;-72
2022/10/18 05:47:46;;;;;;;19.98;17.20;;;;;;;;;;6109450;23;20012;-71
2022/10/18 05:50:12;;;;;;;24.05;17.73;;;;;;;;;;6107828;23;20100;-72
2022/10/18 05:52:38;;;;;;;22.05;17.90;;;;;;;;;;6111561;23;20033;-71
2022/10/18 05:55:04;;;;;;;20.10;16.80;;;;;;;;;;6111365;23;20018;-72
2022/10/18 05:57:31;;;;;;;21.05;17.27;;;;;;;;;;6106186;23;20102;-73
2022/10/18 05:59:57;;;;;;;20.10;17.15;;;;;;;;;;6113995;23;20013;-71
2022/10/18 06:02:23;;;;;;;23.38;17.60;;;;;;;;;;6138907;23;20001;-71
2022/10/18 06:04:49;;;;;;;18.35;16.33;;;;;;;;;;6140807;23;20029;-71
2022/10/18 06:07:16;;;;;;;23.20;17.20;;;;;;;;;;6114750;23;20009;-71
2022/10/18 06:09:42;;;;;;;24.60;17.63;;;;;;;;;;6140309;23;20018;-72
2022/10/18 06:12:09;;;;;;;19.67;17.05;;;;;;;;;;6139567;23;20030;-71
2022/10/18 06:14:36;;;;;;;21.63;16.58;;;;;;;;;;6114741;23;20459;-72
2022/10/18 06:17:02;;;;;;;22.63;17.90;;;;;;;;;;6140472;23;20009;-71
2022/10/18 06:19:28;;;;;;;25.23;17.70;;;;;;;;;;6140796;23;20001;-71
2022/10/18 06:21:54;;;;;;;23.55;17.58;;;;;;;;;;6141168;23;20029;-71
2022/10/18 06:24:21;;;;;;;20.95;18.23;;;;;;;;;;6138873;23;20335;-73
2022/10/18 06:26:48;;;;;;;23.95;18.35;;;;;;;;;;6140296;23;20064;-71
2022/10/18 06:29:14;;;;;;;22.13;18.45;;;;;;;;;;6139997;23;20006;-72
2022/10/18 06:31:40;;;;;;;25.88;19.13;;;;;;;;;;6140525;23;20015;-71
2022/10/18 06:34:06;;;;;;;28.67;20.27;;;;;;;;;;6139281;23;20011;-71
2022/10/18 06:36:33;;;;;;;29.35;19.42;;;;;;;;;;6139831;23;20005;-71
2022/10/18 06:38:59;;;;;;;26.40;20.40;;;;;;;;;;6140863;23;19998;-72
2022/10/18 06:41:25;;;;;;;29.27;19.20;;;;;;;;;;6138541;23;20525;-71
2022/10/18 06:43:55;;;;;;;23.83;18.85;;;;;;;;;;6140614;23;20014;-72
2022/10/18 06:46:22;;;;;;;23.95;18.30;;;;;;;;;;6141068;23;20009;-71
2022/10/18 06:48:48;;;;;;;26.70;19.73;;;;;;;;;;6139381;23;20012;-72
2022/10/18 06:51:14;;;;;;;25.88;18.50;;;;;;;;;;6139292;23;20014;-71
2022/10/18 06:53:40;;;;;;;23.33;19.15;;;;;;;;;;6140380;23;20006;-71
2022/10/18 06:56:07;;;;;;;34.75;21.02;;;;;;;;;;6136085;23;20009;-72
2022/10/18 06:58:34;;;;;;;27.90;21.77;;;;;;;;;;6108785;23;20395;-72
2022/10/18 07:01:07;;;;;;;27.38;20.02;;;;;;;;;;6109614;23;20424;-71
2022/10/18 07:03:33;;;;;;;33.50;22.17;;;;;;;;;;6110935;23;20009;-72
2022/10/18 07:06:01;;;;;;;28.05;20.38;;;;;;;;;;6111220;23;20033;-73
2022/10/18 07:08:27;;;;;;;31.00;20.52;;;;;;;;;;6110423;23;20009;-72
2022/10/18 07:10:54;;;;;;;27.52;21.38;;;;;;;;;;6110301;23;20014;-72
2022/10/18 07:13:21;;;;;;;32.63;24.27;;;;;;;;;;6108797;23;20005;-73
2022/10/18 07:15:47;;;;;;;33.60;21.25;;;;;;;;;;6110797;23;20519;-72
2022/10/18 07:18:13;;;;;;;34.67;25.35;;;;;;;;;;6110137;23;20034;-72
2022/10/18 07:20:39;;;;;;;33.60;23.58;;;;;;;;;;6110758;23;20002;-72
2022/10/18 07:23:08;;;;;;;32.03;23.55;;;;;;;;;;6110716;23;20006;-75
2022/10/18 07:25:35;;;;;;;28.60;22.27;;;;;;;;;;6109529;23;20002;-73
2022/10/18 07:28:01;;;;;;;37.22;26.67;;;;;;;;;;6115978;23;20009;-73
2022/10/18 07:30:27;;;;;;;31.80;23.48;;;;;;;;;;6112935;23;20018;-73
2022/10/18 07:32:53;;;;;;;31.42;25.05;;;;;;;;;;6084227;23;20006;-73
2022/10/18 07:35:20;;;;;;;30.80;22.33;;;;;;;;;;6110291;23;20619;-75
2022/10/18 07:37:46;;;;;;;30.63;22.98;;;;;;;;;;6109134;23;20820;-76
2022/10/18 07:40:12;;;;;;;32.38;24.90;;;;;;;;;;6108335;23;20036;-74
2022/10/18 07:42:39;;;;;;;34.85;25.60;;;;;;;;;;6106659;23;20097;-77
2022/10/18 07:45:05;;;;;;;32.22;25.73;;;;;;;;;;6108367;23;20017;-77
2022/10/18 07:47:32;;;;;;;41.35;27.90;;;;;;;;;;6082563;23;20520;-79
2022/10/18 07:49:58;;;;;;;30.73;23.38;;;;;;;;;;6109828;23;20021;-78
2022/10/18 07:52:24;;;;;;;30.40;23.17;;;;;;;;;;6110038;23;20012;-78
2022/10/18 07:54:50;;;;;;;24.30;19.70;;;;;;;;;;6110103;23;20085;-78
2022/10/18 07:57:17;;;;;;;18.65;15.57;;;;;;;;;;6110069;23;20014;-78
2022/10/18 07:59:47;;;;;;;14.70;13.15;;;;;;;;;;6106071;23;20807;-76
2022/10/18 08:02:13;;;;;;;16.20;14.05;;;;;;;;;;6107340;23;19998;-77
2022/10/18 08:04:39;;;;;;;17.00;13.98;;;;;;;;;;6083285;23;20552;-77
2022/10/18 08:07:05;;;;;;;15.77;13.02;;;;;;;;;;6083901;23;20889;-77
2022/10/18 08:09:31;;;;;;;14.10;12.65;;;;;;;;;;6083094;23;20018;-77
2022/10/18 08:11:57;;;;;;;16.35;13.70;;;;;;;;;;6107821;23;19998;-78
2022/10/18 08:14:24;;;;;;;14.35;12.18;;;;;;;;;;6083212;23;20060;-77
2022/10/18 08:16:50;;;;;;;18.83;13.73;;;;;;;;;;6083443;23;20009;-76
2022/10/18 08:28:26;;;;;;;;;;;;;;;;;;;;;
2022/10/18 08:39:59;;;;;;;16.55;14.27;;;;;;;;;;6067600;23;20085;-78
2022/10/18 08:45:45;;;;;;;15.70;13.43;;;;;;;;;;6092654;23;20069;-77
2022/10/18 08:48:31;;;;;;;16.10;14.45;;;;;;;;;;6108999;23;20002;-78
2022/10/18 08:51:33;;;;;;;;;;;;;;;;;;;;;
2022/10/18 08:54:35;;;;;;;16.23;13.88;;;;;;;;;;6100657;23;20426;-78
2022/10/18 09:00:52;;;;;;;;;;;;;;;;;;;;;
2022/10/18 09:03:46;;;;;;;16.40;13.75;;;;;;;;;;6109045;23;20028;-78
2022/10/18 09:06:30;;;;;;;17.83;14.40;;;;;;;;;;6108745;23;20014;-78
2022/10/18 09:12:55;;;;;;;15.80;13.77;;;;;;;;;;6094003;23;20025;-78
2022/10/18 09:16:01;;;;;;;;;;;;;;;;;;;;;
2022/10/18 09:18:39;;;;;;;17.77;13.68;;;;;;;;;;6101450;23;20016;-78
2022/10/18 09:21:35;;;;;;;;;;;;;;;;;;;;;
2022/10/18 09:24:10;;;;;;;18.98;14.90;;;;;;;;;;6101864;23;20014;-75
2022/10/18 09:26:43;;;;;;;16.38;14.02;;;;;;;;;;6108612;23;20005;-76
2022/10/18 09:29:18;;;;;;;14.90;13.27;;;;;;;;;;6108452;23;20201;-76
2022/10/18 09:31:47;;;;;;;16.48;14.75;;;;;;;;;;6107344;23;20073;-75
2022/10/18 09:34:16;;;;;;;18.48;14.80;;;;;;;;;;6083484;23;20655;-76
2022/10/18 09:36:44;;;;;;;17.08;14.27;;;;;;;;;;6109319;23;20002;-76
2022/10/18 09:39:12;;;;;;;13.90;12.50;;;;;;;;;;6108426;23;20309;-75
2022/10/18 09:41:46;;;;;;;17.75;14.13;;;;;;;;;;6108004;23;20002;-76
2022/10/18 09:44:16;;;;;;;15.40;13.70;;;;;;;;;;6086154;23;20016;-75
2022/10/18 09:46:44;;;;;;;15.55;13.95;;;;;;;;;;6112057;23;20002;-75
2022/10/18 09:49:16;;;;;;;16.73;13.80;;;;;;;;;;6111226;23;20014;-75
2022/10/18 09:51:43;;;;;;;15.38;13.50;;;;;;;;;;6109949;23;20005;-75
2022/10/18 09:54:26;;;;;;;16.00;13.93;;;;;;;;;;6108839;23;20077;-76
2022/10/18 09:56:56;;;;;;;14.55;13.10;;;;;;;;;;6093080;23;20092;-75
2022/10/18 09:59:33;;;;;;;13.60;12.30;;;;;;;;;;6137862;23;20025;-75
2022/10/18 10:01:59;;;;;;;13.75;12.35;;;;;;;;;;6112544;23;20036;-75
2022/10/18 10:04:26;;;;;;;13.48;12.07;;;;;;;;;;6138239;23;20010;-75
2022/10/18 10:06:53;;;;;;;14.95;12.73;;;;;;;;;;6136209;23;20012;-76
2022/10/18 10:09:24;;;;;;;15.75;14.05;;;;;;;;;;6136070;23;20028;-75
2022/10/18 10:11:51;;;;;;;14.60;12.85;;;;;;;;;;6138844;23;20040;-75
2022/10/18 10:14:25;;;;;;;15.23;13.15;;;;;;;;;;6112219;23;20033;-75
2022/10/18 10:16:51;;;;;;;15.38;13.77;;;;;;;;;;6109983;23;20063;-75
2022/10/18 10:19:23;;;;;;;19.63;13.43;;;;;;;;;;6137981;23;20013;-75
2022/10/18 10:21:50;;;;;;;15.45;13.95;;;;;;;;;;6113271;23;20009;-76
2022/10/18 10:24:35;;;;;;;15.40;13.80;;;;;;;;;;6138068;23;20005;-75
2022/10/18 10:27:03;;;;;;;15.85;13.13;;;;;;;;;;6141209;23;20044;-76
2022/10/18 10:29:56;;;;;;;16.10;13.55;;;;;;;;;;6112479;23;20009;-79
2022/10/18 10:32:23;;;;;;;15.02;13.40;;;;;;;;;;6136345;23;20009;-75
2022/10/18 10:34:50;;;;;;;16.30;13.73;;;;;;;;;;6141114;23;20001;-74
2022/10/18 10:37:30;;;;;;;16.27;13.18;;;;;;;;;;6142146;23;20355;-73
2022/10/18 10:40:05;;;;;;;17.30;13.27;;;;;;;;;;6142632;23;20505;-75
2022/10/18 10:42:32;;;;;;;13.70;12.30;;;;;;;;;;6142209;23;20530;-74
2022/10/18 10:44:58;;;;;;;19.02;13.57;;;;;;;;;;6142134;23;20002;-75
2022/10/18 10:47:36;;;;;;;15.63;12.63;;;;;;;;;;6141190;23;20003;-76
2022/10/18 10:50:10;;;;;;;15.32;12.38;;;;;;;;;;6115694;23;20594;-76
2022/10/18 10:52:37;;;;;;;14.48;12.95;;;;;;;;;;6141734;23;20002;-72
2022/10/18 10:55:04;;;;;;;15.75;14.18;;;;;;;;;;6142355;23;20068;-72
2022/10/18 10:57:31;;;;;;;14.98;13.43;;;;;;;;;;6124255;23;20106;-73
2022/10/18 11:00:01;;;;;;;16.77;14.13;;;;;;;;;;6112119;23;20012;-75
2022/10/18 11:02:34;;;;;;;14.55;13.05;;;;;;;;;;6110241;23;19998;-75
2022/10/18 11:05:16;;;;;;;15.00;13.00;;;;;;;;;;6085481;23;20517;-75
2022/10/18 11:07:46;;;;;;;15.98;14.18;;;;;;;;;;6112727;23;20077;-75
2022/10/18 11:10:18;;;;;;;13.77;12.48;;;;;;;;;;6114388;23;20605;-75
2022/10/18 11:12:45;;;;;;;13.48;12.10;;;;;;;;;;6086927;23;20008;-72
2022/10/18 11:15:11;;;;;;;16.13;12.88;;;;;;;;;;6112817;23;20016;-75
2022/10/18 11:17:56;;;;;;;14.40;12.93;;;;;;;;;;6111523;23;20002;-74
2022/10/18 11:20:22;;;;;;;14.85;13.32;;;;;;;;;;6112937;23;20006;-74
2022/10/18 11:23:02;;;;;;;15.18;13.55;;;;;;;;;;6113575;23;20029;-75
2022/10/18 11:25:38;;;;;;;14.70;13.20;;;;;;;;;;6113656;23;20007;-75
2022/10/18 11:28:18;;;;;;;15.98;13.38;;;;;;;;;;6112630;23;19998;-74
2022/10/18 11:30:52;;;;;;;14.40;12.93;;;;;;;;;;6113727;23;20021;-74
2022/10/18 11:33:30;;;;;;;14.82;13.32;;;;;;;;;;6112952;23;20443;-75
2022/10/18 11:36:05;;;;;;;15.30;13.70;;;;;;;;;;6113073;23;20072;-75
2022/10/18 11:38:40;;;;;;;14.55;13.05;;;;;;;;;;6112015;23;20116;-74
2022/10/18 11:41:14;;;;;;;15.85;14.15;;;;;;;;;;6112902;23;20031;-74
2022/10/18 11:43:43;;;;;;;14.95;13.13;;;;;;;;;;6112458;23;20013;-74
2022/10/18 11:46:15;;;;;;;15.38;13.77;;;;;;;;;;6112936;23;20006;-74
2022/10/18 11:48:53;;;;;;;14.73;13.18;;;;;;;;;;6111762;23;20503;-73
2022/10/18 11:51:34;;;;;;;13.07;11.80;;;;;;;;;;6112665;23;20049;-73
2022/10/18 11:54:10;;;;;;;16.92;13.32;;;;;;;;;;6111196;23;20002;-73
2022/10/18 11:56:36;;;;;;;15.35;13.77;;;;;;;;;;6112303;23;20467;-73
2022/10/18 11:59:13;;;;;;;15.65;13.80;;;;;;;;;;6111386;23;20445;-75
2022/10/18 12:01:45;;;;;;;15.05;13.40;;;;;;;;;;6110917;23;20383;-75
2022/10/18 12:04:12;;;;;;;15.43;13.90;;;;;;;;;;6110722;23;20012;-73
2022/10/18 12:06:39;;;;;;;15.55;13.52;;;;;;;;;;6110561;23;20041;-73
2022/10/18 12:09:11;;;;;;;15.32;13.35;;;;;;;;;;6112955;23;20013;-74
2022/10/18 12:11:40;;;;;;;14.20;12.80;;;;;;;;;;6113138;23;20132;-74
2022/10/18 12:14:22;;;;;;;15.45;13.63;;;;;;;;;;6110881;23;20081;-74
2022/10/18 12:16:49;;;;;;;14.93;12.45;;;;;;;;;;6112008;23;20873;-74
2022/10/18 12:19:21;;;;;;;15.88;13.25;;;;;;;;;;6112643;23;20677;-73
2022/10/18 12:21:47;;;;;;;15.35;13.77;;;;;;;;;;6112686;23;20002;-74
2022/10/18 12:24:20;;;;;;;15.68;14.00;;;;;;;;;;6107171;23;20084;-75
2022/10/18 12:26:47;;;;;;;16.27;14.48;;;;;;;;;;6107314;23;20112;-73
2022/10/18 12:29:45;;;;;;;16.95;14.32;;;;;;;;;;6110305;23;20006;-74
2022/10/18 12:32:14;;;;;;;17.00;15.20;;;;;;;;;;6006817;23;20021;-75
2022/10/18 12:34:45;;;;;;;14.38;12.95;;;;;;;;;;6110015;23;20002;-76
2022/10/18 12:37:20;;;;;;;16.07;14.20;;;;;;;;;;6109267;23;20012;-75
2022/10/18 12:39:46;;;;;;;15.85;14.00;;;;;;;;;;6112016;23;20323;-76
2022/10/18 12:42:18;;;;;;;15.75;14.02;;;;;;;;;;6112645;23;20006;-75
2022/10/18 12:44:46;;;;;;;17.33;15.45;;;;;;;;;;6112230;23;20005;-74
2022/10/18 12:47:21;;;;;;;16.85;15.02;;;;;;;;;;6088278;23;20333;-75
2022/10/18 12:49:55;;;;;;;17.00;15.13;;;;;;;;;;6111857;23;20547;-77
2022/10/18 12:52:25;;;;;;;17.83;16.02;;;;;;;;;;6110722;23;20460;-74
2022/10/18 12:55:20;;;;;;;18.00;14.88;;;;;;;;;;6116241;23;20424;-77
2022/10/18 12:57:52;;;;;;;25.55;18.60;;;;;;;;;;6080937;23;20026;-74
2022/10/18 13:00:30;;;;;;;17.58;14.90;;;;;;;;;;6113036;23;20436;-76
2022/10/18 13:03:09;;;;;;;15.50;13.95;;;;;;;;;;6084991;23;20005;-78
2022/10/18 13:05:48;;;;;;;16.02;14.30;;;;;;;;;;6111892;23;20037;-77
2022/10/18 13:08:40;;;;;;;15.68;13.50;;;;;;;;;;6111763;23;20496;-75
2022/10/18 13:11:09;;;;;;;15.75;13.50;;;;;;;;;;6104105;23;20529;-74
2022/10/18 13:13:42;;;;;;;15.95;14.23;;;;;;;;;;6112471;23;20759;-75
2022/10/18 13:16:24;;;;;;;16.85;14.73;;;;;;;;;;6111995;23;20486;-79
2022/10/18 13:18:56;;;;;;;16.17;14.35;;;;;;;;;;6110714;23;20013;-77
2022/10/18 13:21:22;;;;;;;16.98;14.35;;;;;;;;;;6112258;23;20064;-73
2022/10/18 13:23:48;;;;;;;16.55;14.57;;;;;;;;;;6112072;23;20077;-75
2022/10/18 13:26:19;;;;;;;15.52;14.00;;;;;;;;;;6111383;23;20056;-76
2022/10/18 13:28:45;;;;;;;16.95;14.80;;;;;;;;;;6085177;23;20010;-78
2022/10/18 13:31:17;;;;;;;15.70;14.05;;;;;;;;;;6111685;23;20021;-75
2022/10/18 13:33:43;;;;;;;18.23;14.82;;;;;;;;;;6111954;23;19998;-75
2022/10/18 13:36:26;;;;;;;23.67;15.43;;;;;;;;;;6112195;23;20002;-74
2022/10/18 13:38:56;;;;;;;18.08;16.02;;;;;;;;;;6110083;23;20432;-77
2022/10/18 13:41:23;;;;;;;16.02;14.27;;;;;;;;;;6112116;23;20109;-75
2022/10/18 13:43:52;;;;;;;16.55;14.80;;;;;;;;;;6085792;23;20033;-74
2022/10/18 13:46:19;;;;;;;16.75;13.95;;;;;;;;;;6110228;23;20001;-79
2022/10/18 13:48:59;;;;;;;16.55;14.07;;;;;;;;;;6111691;23;20907;-79
2022/10/18 13:51:36;;;;;;;19.95;15.55;;;;;;;;;;6112574;23;20145;-78
2022/10/18 13:54:29;;;;;;;16.77;15.07;;;;;;;;;;6086516;23;20159;-78
2022/10/18 13:57:04;;;;;;;18.17;15.57;;;;;;;;;;6056200;23;20041;-76
2022/10/18 13:59:49;;;;;;;18.83;15.40;;;;;;;;;;6110507;23;20006;-77
2022/10/18 14:02:24;;;;;;;18.30;16.27;;;;;;;;;;6111844;23;20025;-76
2022/10/18 14:05:09;;;;;;;16.73;15.02;;;;;;;;;;6111151;23;20013;-76
2022/10/18 14:07:35;;;;;;;17.65;15.70;;;;;;;;;;6111831;23;20034;-79
2022/10/18 14:10:02;;;;;;;16.15;14.32;;;;;;;;;;6109913;23;20091;-77
2022/10/18 14:12:31;;;;;;;15.43;13.93;;;;;;;;;;6112822;23;20002;-79
2022/10/18 14:15:03;;;;;;;16.70;14.98;;;;;;;;;;6113621;23;20006;-80
2022/10/18 14:17:41;;;;;;;21.48;15.55;;;;;;;;;;6113564;23;20002;-79
2022/10/18 14:20:16;;;;;;;17.70;14.93;;;;;;;;;;6113496;23;20036;-78
2022/10/18 14:22:46;;;;;;;23.30;15.93;;;;;;;;;;6111595;23;20507;-77
2022/10/18 14:25:23;;;;;;;22.38;16.75;;;;;;;;;;6113338;23;20002;-78
2022/10/18 14:28:01;;;;;;;18.33;15.85;;;;;;;;;;6113644;23;20492;-79
2022/10/18 14:30:28;;;;;;;19.05;16.58;;;;;;;;;;6113361;23;20010;-77
2022/10/18 14:32:54;;;;;;;20.35;16.77;;;;;;;;;;6087878;23;20075;-78
2022/10/18 14:35:22;;;;;;;18.98;15.35;;;;;;;;;;6111406;23;20065;-80
2022/10/18 14:37:49;;;;;;;20.63;14.48;;;;;;;;;;6113206;23;20026;-77
2022/10/18 14:40:41;;;;;;;21.23;15.57;;;;;;;;;;6113350;23;20005;-77
2022/10/18 14:43:11;;;;;;;21.25;16.42;;;;;;;;;;6081366;23;20016;-77
2022/10/18 14:45:37;;;;;;;20.95;16.15;;;;;;;;;;6114624;23;20081;-78
2022/10/18 14:48:07;;;;;;;19.80;15.60;;;;;;;;;;6112686;23;20569;-76
2022/10/18 14:50:34;;;;;;;19.25;15.82;;;;;;;;;;6108023;23;20065;-76
2022/10/18 14:53:04;;;;;;;18.45;16.55;;;;;;;;;;6109697;23;20006;-75
2022/10/18 14:55:31;;;;;;;19.42;16.23;;;;;;;;;;6111524;23;20032;-74
2022/10/18 14:57:58;;;;;;;21.13;16.17;;;;;;;;;;6110553;23;20024;-74
2022/10/18 15:00:42;;;;;;;21.52;16.65;;;;;;;;;;6110627;23;20002;-74
2022/10/18 15:03:12;;;;;;;20.30;17.33;;;;;;;;;;6109376;23;20049;-74
2022/10/18 15:05:51;;;;;;;19.38;16.58;;;;;;;;;;6110900;23;20010;-76